KSBP

San Luis County Regional Airport

San Luis Obispo, California, USA
METAR KSBP 211356Z 06004KT 10SM OVC019 12/08 A2990 RMK AO2 SLP124 T01220083
Observed Flight Rules
May-21 @ 13:56 UTC (49 minutes ago) Marginal Visual Flight Rules
Wind Visibility Clouds
60° at 4 knots 10 miles
  • Overcast at 1,900' AGL
Temperatures Readings
Current 12°C / 54°F
Dewpoint 8°C / 46°F
Humidity 77%
Altimeter 29.9" Hg
Pressure 1012.4 hPa
Elevation 59
METAR KSBP 211356Z 06004KT 10SM OVC019 12/08 A2990 RMK AO2 SLP124 T01220083
Observed Flight Rules
May-21 @ 13:56 UTC
(49 minutes ago)
MVFR
Wind Visibility
60° at 4 knots 10 miles
Clouds
  • Overcast at 1,900' AGL
Temperature Dewpoint
12°C / 54°F 8°C / 46°F
Humidity Altimeter Pressure
77% 29.9" Hg 1012.4 hPa